sensor_id;sensor_type;location;lat;lon;timestamp;temperature;humidity
44843;DHT22;31884;52.538;13.820;2023-12-20T00:02:13;6.80;99.90
44843;DHT22;31884;52.538;13.820;2023-12-20T00:04:38;6.80;99.90
44843;DHT22;31884;52.538;13.820;2023-12-20T00:07:05;6.80;99.90
44843;DHT22;31884;52.538;13.820;2023-12-20T00:09:30;6.80;99.90
44843;DHT22;31884;52.538;13.820;2023-12-20T00:11:56;6.80;99.90
44843;DHT22;31884;52.538;13.820;2023-12-20T00:14:22;6.80;99.90
44843;DHT22;31884;52.538;13.820;2023-12-20T00:16:47;6.80;99.90
44843;DHT22;31884;52.538;13.820;2023-12-20T00:19:13;6.90;99.90
44843;DHT22;31884;52.538;13.820;2023-12-20T00:21:38;6.80;99.90
44843;DHT22;31884;52.538;13.820;2023-12-20T00:24:04;6.90;99.90
44843;DHT22;31884;52.538;13.820;2023-12-20T00:26:30;6.90;99.90
44843;DHT22;31884;52.538;13.820;2023-12-20T00:28:56;6.90;99.90
44843;DHT22;31884;52.538;13.820;2023-12-20T00:31:21;6.90;99.90
44843;DHT22;31884;52.538;13.820;2023-12-20T00:33:47;6.90;99.90
44843;DHT22;31884;52.538;13.820;2023-12-20T00:36:12;6.90;99.90
44843;DHT22;31884;52.538;13.820;2023-12-20T00:38:38;6.90;99.90
44843;DHT22;31884;52.538;13.820;2023-12-20T00:41:03;6.90;99.90
44843;DHT22;31884;52.538;13.820;2023-12-20T00:43:29;6.90;99.90
44843;DHT22;31884;52.538;13.820;2023-12-20T00:45:54;6.90;99.90
44843;DHT22;31884;52.538;13.820;2023-12-20T00:48:21;6.90;99.90
44843;DHT22;31884;52.538;13.820;2023-12-20T00:50:46;6.90;99.90
44843;DHT22;31884;52.538;13.820;2023-12-20T00:53:12;6.90;99.90
44843;DHT22;31884;52.538;13.820;2023-12-20T00:55:37;6.90;99.90
44843;DHT22;31884;52.538;13.820;2023-12-20T00:58:03;6.90;99.90
44843;DHT22;31884;52.538;13.820;2023-12-20T01:00:28;6.90;99.90
44843;DHT22;31884;52.538;13.820;2023-12-20T01:02:54;6.90;99.90
44843;DHT22;31884;52.538;13.820;2023-12-20T01:05:20;6.90;99.90
44843;DHT22;31884;52.538;13.820;2023-12-20T01:07:48;6.90;99.90
44843;DHT22;31884;52.538;13.820;2023-12-20T01:10:14;6.90;99.90
44843;DHT22;31884;52.538;13.820;2023-12-20T01:12:39;6.90;99.90
44843;DHT22;31884;52.538;13.820;2023-12-20T01:15:05;6.90;99.90
44843;DHT22;31884;52.538;13.820;2023-12-20T01:17:31;6.90;99.90
44843;DHT22;31884;52.538;13.820;2023-12-20T01:19:56;6.90;99.90
44843;DHT22;31884;52.538;13.820;2023-12-20T01:22:22;6.90;99.90
44843;DHT22;31884;52.538;13.820;2023-12-20T01:24:47;6.90;99.90
44843;DHT22;31884;52.538;13.820;2023-12-20T01:27:13;6.90;99.90
44843;DHT22;31884;52.538;13.820;2023-12-20T01:29:38;6.90;99.90
44843;DHT22;31884;52.538;13.820;2023-12-20T01:32:04;6.90;99.90
44843;DHT22;31884;52.538;13.820;2023-12-20T01:34:29;6.90;99.90
44843;DHT22;31884;52.538;13.820;2023-12-20T01:36:55;6.80;99.90
44843;DHT22;31884;52.538;13.820;2023-12-20T01:39:21;6.90;99.90
44843;DHT22;31884;52.538;13.820;2023-12-20T01:41:46;6.90;99.90
44843;DHT22;31884;52.538;13.820;2023-12-20T01:44:11;6.80;99.90
44843;DHT22;31884;52.538;13.820;2023-12-20T01:46:37;6.80;99.90
44843;DHT22;31884;52.538;13.820;2023-12-20T01:49:03;6.80;99.90
44843;DHT22;31884;52.538;13.820;2023-12-20T01:51:29;6.80;99.90
44843;DHT22;31884;52.538;13.820;2023-12-20T01:53:57;6.80;99.90
44843;DHT22;31884;52.538;13.820;2023-12-20T01:56:23;6.80;99.90
44843;DHT22;31884;52.538;13.820;2023-12-20T01:58:49;6.80;99.90
44843;DHT22;31884;52.538;13.820;2023-12-20T02:01:15;6.80;99.90
44843;DHT22;31884;52.538;13.820;2023-12-20T02:03:41;6.80;99.90
44843;DHT22;31884;52.538;13.820;2023-12-20T02:06:07;6.90;99.90
44843;DHT22;31884;52.538;13.820;2023-12-20T02:08:34;6.80;99.90
44843;DHT22;31884;52.538;13.820;2023-12-20T02:11:00;6.80;99.90
44843;DHT22;31884;52.538;13.820;2023-12-20T02:13:25;6.90;99.90
44843;DHT22;31884;52.538;13.820;2023-12-20T02:15:52;6.80;99.90
44843;DHT22;31884;52.538;13.820;2023-12-20T02:18:17;6.90;99.90
44843;DHT22;31884;52.538;13.820;2023-12-20T02:20:43;6.90;99.90
44843;DHT22;31884;52.538;13.820;2023-12-20T02:23:09;6.90;99.90
44843;DHT22;31884;52.538;13.820;2023-12-20T02:25:34;6.90;99.90
44843;DHT22;31884;52.538;13.820;2023-12-20T02:28:00;6.90;99.90
44843;DHT22;31884;52.538;13.820;2023-12-20T02:30:26;6.90;99.90
44843;DHT22;31884;52.538;13.820;2023-12-20T02:32:52;6.90;99.90
44843;DHT22;31884;52.538;13.820;2023-12-20T02:35:18;6.90;99.90
44843;DHT22;31884;52.538;13.820;2023-12-20T02:37:44;6.90;99.90
44843;DHT22;31884;52.538;13.820;2023-12-20T02:40:09;6.90;99.90
44843;DHT22;31884;52.538;13.820;2023-12-20T02:42:35;7.00;99.90
44843;DHT22;31884;52.538;13.820;2023-12-20T02:45:01;7.00;99.90
44843;DHT22;31884;52.538;13.820;2023-12-20T02:47:26;7.00;99.90
44843;DHT22;31884;52.538;13.820;2023-12-20T02:49:52;7.00;99.90
44843;DHT22;31884;52.538;13.820;2023-12-20T02:52:18;7.00;99.90
44843;DHT22;31884;52.538;13.820;2023-12-20T02:54:44;7.00;99.90
44843;DHT22;31884;52.538;13.820;2023-12-20T02:57:09;7.00;99.90
44843;DHT22;31884;52.538;13.820;2023-12-20T02:59:35;7.00;99.90
44843;DHT22;31884;52.538;13.820;2023-12-20T03:02:00;7.00;99.90
44843;DHT22;31884;52.538;13.820;2023-12-20T03:04:26;7.00;99.90
44843;DHT22;31884;52.538;13.820;2023-12-20T03:06:51;7.00;99.90
44843;DHT22;31884;52.538;13.820;2023-12-20T03:09:17;7.00;99.90
44843;DHT22;31884;52.538;13.820;2023-12-20T03:11:43;7.00;99.90
44843;DHT22;31884;52.538;13.820;2023-12-20T03:14:09;7.00;99.90
44843;DHT22;31884;52.538;13.820;2023-12-20T03:16:34;7.00;99.90
44843;DHT22;31884;52.538;13.820;2023-12-20T03:19:00;7.00;99.90
44843;DHT22;31884;52.538;13.820;2023-12-20T03:21:25;7.00;99.90
44843;DHT22;31884;52.538;13.820;2023-12-20T03:23:50;7.00;99.90
44843;DHT22;31884;52.538;13.820;2023-12-20T03:26:16;7.00;99.90
44843;DHT22;31884;52.538;13.820;2023-12-20T03:28:41;7.00;99.90
44843;DHT22;31884;52.538;13.820;2023-12-20T03:31:07;7.00;99.90
44843;DHT22;31884;52.538;13.820;2023-12-20T03:33:34;6.90;99.90
44843;DHT22;31884;52.538;13.820;2023-12-20T03:35:59;7.00;99.90
44843;DHT22;31884;52.538;13.820;2023-12-20T03:38:25;6.90;99.90
44843;DHT22;31884;52.538;13.820;2023-12-20T03:40:50;6.90;99.90
44843;DHT22;31884;52.538;13.820;2023-12-20T03:43:16;6.90;99.90
44843;DHT22;31884;52.538;13.820;2023-12-20T03:45:42;6.90;99.90
44843;DHT22;31884;52.538;13.820;2023-12-20T03:48:08;6.90;99.90
44843;DHT22;31884;52.538;13.820;2023-12-20T03:50:34;6.80;99.90
44843;DHT22;31884;52.538;13.820;2023-12-20T03:53:00;6.80;99.90
44843;DHT22;31884;52.538;13.820;2023-12-20T03:55:25;6.80;99.90
44843;DHT22;31884;52.538;13.820;2023-12-20T03:57:51;6.80;99.90
44843;DHT22;31884;52.538;13.820;2023-12-20T04:00:17;6.70;99.90
44843;DHT22;31884;52.538;13.820;2023-12-20T04:02:42;6.70;99.90
44843;DHT22;31884;52.538;13.820;2023-12-20T04:05:09;6.70;99.90
44843;DHT22;31884;52.538;13.820;2023-12-20T04:07:37;6.70;99.90
44843;DHT22;31884;52.538;13.820;2023-12-20T04:10:03;6.70;99.90
44843;DHT22;31884;52.538;13.820;2023-12-20T04:12:32;6.60;99.90
44843;DHT22;31884;52.538;13.820;2023-12-20T04:14:58;6.60;99.90
44843;DHT22;31884;52.538;13.820;2023-12-20T04:17:23;6.50;99.90
44843;DHT22;31884;52.538;13.820;2023-12-20T04:19:49;6.50;99.90
44843;DHT22;31884;52.538;13.820;2023-12-20T04:22:15;6.40;99.90
44843;DHT22;31884;52.538;13.820;2023-12-20T04:24:41;6.40;99.90
44843;DHT22;31884;52.538;13.820;2023-12-20T04:27:07;6.30;99.90
44843;DHT22;31884;52.538;13.820;2023-12-20T04:29:33;6.20;99.90
44843;DHT22;31884;52.538;13.820;2023-12-20T04:31:59;6.20;99.90
44843;DHT22;31884;52.538;13.820;2023-12-20T04:34:24;6.20;99.90
44843;DHT22;31884;52.538;13.820;2023-12-20T04:36:50;6.20;99.90
44843;DHT22;31884;52.538;13.820;2023-12-20T04:39:15;6.20;99.90
44843;DHT22;31884;52.538;13.820;2023-12-20T04:41:41;6.20;99.90
44843;DHT22;31884;52.538;13.820;2023-12-20T04:44:07;6.20;99.90
44843;DHT22;31884;52.538;13.820;2023-12-20T04:46:32;6.20;99.90
44843;DHT22;31884;52.538;13.820;2023-12-20T04:48:58;6.20;99.90
44843;DHT22;31884;52.538;13.820;2023-12-20T04:51:23;6.20;99.90
44843;DHT22;31884;52.538;13.820;2023-12-20T04:53:49;6.20;99.90
44843;DHT22;31884;52.538;13.820;2023-12-20T04:56:14;6.20;99.90
44843;DHT22;31884;52.538;13.820;2023-12-20T04:58:40;6.20;99.90
44843;DHT22;31884;52.538;13.820;2023-12-20T05:01:06;6.10;99.90
44843;DHT22;31884;52.538;13.820;2023-12-20T05:03:31;6.00;99.90
44843;DHT22;31884;52.538;13.820;2023-12-20T05:05:57;6.00;99.90
44843;DHT22;31884;52.538;13.820;2023-12-20T05:08:22;6.00;99.90
44843;DHT22;31884;52.538;13.820;2023-12-20T05:10:48;5.90;99.90
44843;DHT22;31884;52.538;13.820;2023-12-20T05:13:13;5.80;99.90
44843;DHT22;31884;52.538;13.820;2023-12-20T05:15:39;5.80;99.90
44843;DHT22;31884;52.538;13.820;2023-12-20T05:18:04;5.90;99.90
44843;DHT22;31884;52.538;13.820;2023-12-20T05:20:30;5.80;99.90
44843;DHT22;31884;52.538;13.820;2023-12-20T05:22:55;5.80;99.90
44843;DHT22;31884;52.538;13.820;2023-12-20T05:25:21;5.70;99.90
44843;DHT22;31884;52.538;13.820;2023-12-20T05:27:46;5.70;99.90
44843;DHT22;31884;52.538;13.820;2023-12-20T05:30:12;5.70;99.90
44843;DHT22;31884;52.538;13.820;2023-12-20T05:32:38;5.70;99.90
44843;DHT22;31884;52.538;13.820;2023-12-20T05:35:03;5.70;99.90
44843;DHT22;31884;52.538;13.820;2023-12-20T05:37:29;5.60;99.90
44843;DHT22;31884;52.538;13.820;2023-12-20T05:39:54;5.60;99.90
44843;DHT22;31884;52.538;13.820;2023-12-20T05:42:20;5.70;99.90
44843;DHT22;31884;52.538;13.820;2023-12-20T05:44:45;5.70;99.90
44843;DHT22;31884;52.538;13.820;2023-12-20T05:47:11;5.70;99.90
44843;DHT22;31884;52.538;13.820;2023-12-20T05:49:36;5.70;99.90
44843;DHT22;31884;52.538;13.820;2023-12-20T05:52:02;5.80;99.90
44843;DHT22;31884;52.538;13.820;2023-12-20T05:54:27;5.70;99.90
44843;DHT22;31884;52.538;13.820;2023-12-20T05:56:53;5.70;99.90
44843;DHT22;31884;52.538;13.820;2023-12-20T05:59:19;5.70;99.90
44843;DHT22;31884;52.538;13.820;2023-12-20T06:01:44;5.60;99.90
44843;DHT22;31884;52.538;13.820;2023-12-20T06:04:10;5.50;99.90
44843;DHT22;31884;52.538;13.820;2023-12-20T06:06:40;5.40;99.90
44843;DHT22;31884;52.538;13.820;2023-12-20T06:09:06;5.30;99.90
44843;DHT22;31884;52.538;13.820;2023-12-20T06:11:31;5.30;99.90
44843;DHT22;31884;52.538;13.820;2023-12-20T06:13:57;5.20;99.90
44843;DHT22;31884;52.538;13.820;2023-12-20T06:16:22;5.00;99.90
44843;DHT22;31884;52.538;13.820;2023-12-20T06:18:48;5.00;99.90
44843;DHT22;31884;52.538;13.820;2023-12-20T06:21:13;4.90;99.90
44843;DHT22;31884;52.538;13.820;2023-12-20T06:23:39;4.90;99.90
44843;DHT22;31884;52.538;13.820;2023-12-20T06:26:05;4.70;99.90
44843;DHT22;31884;52.538;13.820;2023-12-20T06:28:30;4.70;99.90
44843;DHT22;31884;52.538;13.820;2023-12-20T06:30:56;4.60;99.90
44843;DHT22;31884;52.538;13.820;2023-12-20T06:33:22;4.60;99.90
44843;DHT22;31884;52.538;13.820;2023-12-20T06:35:48;4.60;99.90
44843;DHT22;31884;52.538;13.820;2023-12-20T06:38:14;4.60;99.90
44843;DHT22;31884;52.538;13.820;2023-12-20T06:40:39;4.60;99.90
44843;DHT22;31884;52.538;13.820;2023-12-20T06:43:05;4.70;99.90
44843;DHT22;31884;52.538;13.820;2023-12-20T06:45:32;4.70;99.90
44843;DHT22;31884;52.538;13.820;2023-12-20T06:47:57;4.70;99.90
44843;DHT22;31884;52.538;13.820;2023-12-20T06:50:23;4.70;99.90
44843;DHT22;31884;52.538;13.820;2023-12-20T06:52:49;4.70;99.90
44843;DHT22;31884;52.538;13.820;2023-12-20T06:55:14;4.70;99.90
44843;DHT22;31884;52.538;13.820;2023-12-20T06:57:40;4.60;99.90
44843;DHT22;31884;52.538;13.820;2023-12-20T07:00:06;4.70;99.90
44843;DHT22;31884;52.538;13.820;2023-12-20T07:02:32;4.70;99.90
44843;DHT22;31884;52.538;13.820;2023-12-20T07:04:57;4.70;99.90
44843;DHT22;31884;52.538;13.820;2023-12-20T07:07:23;4.70;99.90
44843;DHT22;31884;52.538;13.820;2023-12-20T07:09:51;4.70;99.90
44843;DHT22;31884;52.538;13.820;2023-12-20T07:12:17;4.70;99.90
44843;DHT22;31884;52.538;13.820;2023-12-20T07:14:45;4.70;99.90
44843;DHT22;31884;52.538;13.820;2023-12-20T07:17:10;4.70;99.90
44843;DHT22;31884;52.538;13.820;2023-12-20T07:19:39;4.70;99.90
44843;DHT22;31884;52.538;13.820;2023-12-20T07:22:05;4.70;99.90
44843;DHT22;31884;52.538;13.820;2023-12-20T07:24:31;4.80;99.90
44843;DHT22;31884;52.538;13.820;2023-12-20T07:26:57;4.80;99.90
44843;DHT22;31884;52.538;13.820;2023-12-20T07:29:22;4.90;99.90
44843;DHT22;31884;52.538;13.820;2023-12-20T07:31:48;4.90;99.90
44843;DHT22;31884;52.538;13.820;2023-12-20T07:34:13;5.00;99.90
44843;DHT22;31884;52.538;13.820;2023-12-20T07:36:38;5.00;99.90
44843;DHT22;31884;52.538;13.820;2023-12-20T07:39:04;5.10;99.90
44843;DHT22;31884;52.538;13.820;2023-12-20T07:41:30;5.20;99.90
44843;DHT22;31884;52.538;13.820;2023-12-20T07:43:55;5.30;99.90
44843;DHT22;31884;52.538;13.820;2023-12-20T07:46:22;5.30;99.90
44843;DHT22;31884;52.538;13.820;2023-12-20T07:48:48;5.40;99.90
44843;DHT22;31884;52.538;13.820;2023-12-20T07:51:14;5.40;99.90
44843;DHT22;31884;52.538;13.820;2023-12-20T07:53:39;5.40;99.90
44843;DHT22;31884;52.538;13.820;2023-12-20T07:56:18;5.50;99.90
44843;DHT22;31884;52.538;13.820;2023-12-20T07:58:44;5.50;99.90
44843;DHT22;31884;52.538;13.820;2023-12-20T08:01:11;5.50;99.90
44843;DHT22;31884;52.538;13.820;2023-12-20T08:03:37;5.50;99.90
44843;DHT22;31884;52.538;13.820;2023-12-20T08:06:03;5.50;99.90
44843;DHT22;31884;52.538;13.820;2023-12-20T08:08:28;5.60;99.90
44843;DHT22;31884;52.538;13.820;2023-12-20T08:10:54;5.60;99.90
44843;DHT22;31884;52.538;13.820;2023-12-20T08:13:20;5.60;99.90
44843;DHT22;31884;52.538;13.820;2023-12-20T08:15:50;5.60;99.90
44843;DHT22;31884;52.538;13.820;2023-12-20T08:18:15;5.70;99.90
44843;DHT22;31884;52.538;13.820;2023-12-20T08:20:41;5.70;99.90
44843;DHT22;31884;52.538;13.820;2023-12-20T08:23:06;5.70;99.90
44843;DHT22;31884;52.538;13.820;2023-12-20T08:25:32;5.80;99.90
44843;DHT22;31884;52.538;13.820;2023-12-20T08:27:57;5.80;99.90
44843;DHT22;31884;52.538;13.820;2023-12-20T08:30:23;5.80;99.90
44843;DHT22;31884;52.538;13.820;2023-12-20T08:32:48;5.80;99.90
44843;DHT22;31884;52.538;13.820;2023-12-20T08:35:14;5.80;99.90
44843;DHT22;31884;52.538;13.820;2023-12-20T08:37:39;5.80;99.90
44843;DHT22;31884;52.538;13.820;2023-12-20T08:40:05;5.80;99.90
44843;DHT22;31884;52.538;13.820;2023-12-20T08:42:31;5.90;99.90
44843;DHT22;31884;52.538;13.820;2023-12-20T08:44:59;5.90;99.90
44843;DHT22;31884;52.538;13.820;2023-12-20T08:47:25;5.90;99.90
44843;DHT22;31884;52.538;13.820;2023-12-20T08:49:50;5.90;99.90
44843;DHT22;31884;52.538;13.820;2023-12-20T08:52:16;5.90;99.90
44843;DHT22;31884;52.538;13.820;2023-12-20T08:54:41;5.90;99.90
44843;DHT22;31884;52.538;13.820;2023-12-20T08:57:07;6.00;99.90
44843;DHT22;31884;52.538;13.820;2023-12-20T08:59:33;6.00;99.90
44843;DHT22;31884;52.538;13.820;2023-12-20T09:01:58;6.00;99.90
44843;DHT22;31884;52.538;13.820;2023-12-20T09:04:24;6.10;99.90
44843;DHT22;31884;52.538;13.820;2023-12-20T09:06:50;6.10;99.90
44843;DHT22;31884;52.538;13.820;2023-12-20T09:09:15;6.30;99.90
44843;DHT22;31884;52.538;13.820;2023-12-20T09:11:41;6.50;99.90
44843;DHT22;31884;52.538;13.820;2023-12-20T09:14:07;6.50;99.90
44843;DHT22;31884;52.538;13.820;2023-12-20T09:16:33;6.60;99.90
44843;DHT22;31884;52.538;13.820;2023-12-20T09:18:58;6.60;99.90
44843;DHT22;31884;52.538;13.820;2023-12-20T09:21:24;6.70;99.90
44843;DHT22;31884;52.538;13.820;2023-12-20T09:23:49;6.70;99.90
44843;DHT22;31884;52.538;13.820;2023-12-20T09:26:15;6.70;99.90
44843;DHT22;31884;52.538;13.820;2023-12-20T09:28:40;6.70;99.90
44843;DHT22;31884;52.538;13.820;2023-12-20T09:31:06;6.70;99.90
44843;DHT22;31884;52.538;13.820;2023-12-20T09:33:32;6.80;99.90
44843;DHT22;31884;52.538;13.820;2023-12-20T09:35:58;6.80;99.90
44843;DHT22;31884;52.538;13.820;2023-12-20T09:38:24;6.80;99.90
44843;DHT22;31884;52.538;13.820;2023-12-20T09:40:50;6.80;99.90
44843;DHT22;31884;52.538;13.820;2023-12-20T09:43:19;6.80;99.90
44843;DHT22;31884;52.538;13.820;2023-12-20T09:45:46;6.80;99.90
44843;DHT22;31884;52.538;13.820;2023-12-20T09:48:12;6.80;99.90
44843;DHT22;31884;52.538;13.820;2023-12-20T09:50:40;6.70;99.90
44843;DHT22;31884;52.538;13.820;2023-12-20T09:53:08;6.70;99.90
44843;DHT22;31884;52.538;13.820;2023-12-20T09:55:35;6.70;99.90
44843;DHT22;31884;52.538;13.820;2023-12-20T09:58:01;6.70;99.90
44843;DHT22;31884;52.538;13.820;2023-12-20T10:00:27;6.60;99.90
44843;DHT22;31884;52.538;13.820;2023-12-20T10:02:57;6.60;99.90
44843;DHT22;31884;52.538;13.820;2023-12-20T10:05:33;6.60;99.90
44843;DHT22;31884;52.538;13.820;2023-12-20T10:08:00;6.60;99.90
44843;DHT22;31884;52.538;13.820;2023-12-20T10:10:26;6.60;99.90
44843;DHT22;31884;52.538;13.820;2023-12-20T10:13:06;6.60;99.90
44843;DHT22;31884;52.538;13.820;2023-12-20T10:15:33;6.60;99.90
44843;DHT22;31884;52.538;13.820;2023-12-20T10:17:59;6.60;99.90
44843;DHT22;31884;52.538;13.820;2023-12-20T10:20:25;6.60;99.90
44843;DHT22;31884;52.538;13.820;2023-12-20T10:22:52;6.60;99.90
44843;DHT22;31884;52.538;13.820;2023-12-20T10:25:19;6.50;99.90
44843;DHT22;31884;52.538;13.820;2023-12-20T10:27:45;6.60;99.90
44843;DHT22;31884;52.538;13.820;2023-12-20T10:30:10;6.50;99.90
44843;DHT22;31884;52.538;13.820;2023-12-20T10:32:36;6.50;99.90
44843;DHT22;31884;52.538;13.820;2023-12-20T10:35:01;6.50;99.90
44843;DHT22;31884;52.538;13.820;2023-12-20T10:37:27;6.60;99.90
44843;DHT22;31884;52.538;13.820;2023-12-20T10:39:54;6.60;99.90
44843;DHT22;31884;52.538;13.820;2023-12-20T10:42:26;6.60;99.90
44843;DHT22;31884;52.538;13.820;2023-12-20T10:44:52;6.70;99.90
44843;DHT22;31884;52.538;13.820;2023-12-20T10:47:19;6.70;99.90
44843;DHT22;31884;52.538;13.820;2023-12-20T10:49:46;6.70;99.90
44843;DHT22;31884;52.538;13.820;2023-12-20T10:52:12;6.70;99.90
44843;DHT22;31884;52.538;13.820;2023-12-20T10:54:39;6.70;99.90
44843;DHT22;31884;52.538;13.820;2023-12-20T10:57:06;6.70;99.90
44843;DHT22;31884;52.538;13.820;2023-12-20T10:59:33;6.70;99.90
44843;DHT22;31884;52.538;13.820;2023-12-20T11:02:02;6.80;99.90
44843;DHT22;31884;52.538;13.820;2023-12-20T11:04:51;6.80;99.90
44843;DHT22;31884;52.538;13.820;2023-12-20T11:07:35;6.80;99.90
44843;DHT22;31884;52.538;13.820;2023-12-20T11:11:35;6.80;99.90
44843;DHT22;31884;52.538;13.820;2023-12-20T11:13:31;6.90;99.90
44843;DHT22;31884;52.538;13.820;2023-12-20T11:15:58;6.90;99.90
44843;DHT22;31884;52.538;13.820;2023-12-20T11:18:30;7.00;99.90
44843;DHT22;31884;52.538;13.820;2023-12-20T11:21:09;7.00;99.90
44843;DHT22;31884;52.538;13.820;2023-12-20T11:23:36;6.90;99.90
44843;DHT22;31884;52.538;13.820;2023-12-20T11:26:02;7.00;99.90
44843;DHT22;31884;52.538;13.820;2023-12-20T11:28:28;7.00;99.90
44843;DHT22;31884;52.538;13.820;2023-12-20T11:30:58;6.90;99.90
44843;DHT22;31884;52.538;13.820;2023-12-20T11:33:36;6.90;99.90
44843;DHT22;31884;52.538;13.820;2023-12-20T11:36:02;6.90;99.90
44843;DHT22;31884;52.538;13.820;2023-12-20T11:38:36;7.00;99.90
44843;DHT22;31884;52.538;13.820;2023-12-20T11:41:02;6.90;99.90
44843;DHT22;31884;52.538;13.820;2023-12-20T11:43:37;6.90;99.90
44843;DHT22;31884;52.538;13.820;2023-12-20T11:46:07;6.90;99.90
44843;DHT22;31884;52.538;13.820;2023-12-20T11:48:36;6.90;99.90
44843;DHT22;31884;52.538;13.820;2023-12-20T11:51:02;6.80;99.90
44843;DHT22;31884;52.538;13.820;2023-12-20T11:53:29;6.80;99.90
44843;DHT22;31884;52.538;13.820;2023-12-20T11:55:56;6.80;99.90
44843;DHT22;31884;52.538;13.820;2023-12-20T11:58:21;6.80;99.90
44843;DHT22;31884;52.538;13.820;2023-12-20T12:00:49;6.70;99.90
44843;DHT22;31884;52.538;13.820;2023-12-20T12:03:15;6.70;99.90
44843;DHT22;31884;52.538;13.820;2023-12-20T12:05:41;6.70;99.90
44843;DHT22;31884;52.538;13.820;2023-12-20T12:08:06;6.70;99.90
44843;DHT22;31884;52.538;13.820;2023-12-20T12:10:33;6.70;99.90
44843;DHT22;31884;52.538;13.820;2023-12-20T12:12:59;6.70;99.90
44843;DHT22;31884;52.538;13.820;2023-12-20T12:15:25;6.70;99.90
44843;DHT22;31884;52.538;13.820;2023-12-20T12:17:57;6.80;99.90
44843;DHT22;31884;52.538;13.820;2023-12-20T12:20:23;6.70;99.90
44843;DHT22;31884;52.538;13.820;2023-12-20T12:23:05;6.80;99.90
44843;DHT22;31884;52.538;13.820;2023-12-20T12:25:32;6.90;99.90
44843;DHT22;31884;52.538;13.820;2023-12-20T12:27:58;6.90;99.90
44843;DHT22;31884;52.538;13.820;2023-12-20T12:30:25;6.90;99.90
44843;DHT22;31884;52.538;13.820;2023-12-20T12:32:52;6.90;99.90
44843;DHT22;31884;52.538;13.820;2023-12-20T12:35:18;6.90;99.90
44843;DHT22;31884;52.538;13.820;2023-12-20T12:37:43;6.80;99.90
44843;DHT22;31884;52.538;13.820;2023-12-20T12:40:13;6.80;99.90
44843;DHT22;31884;52.538;13.820;2023-12-20T12:42:40;6.80;99.90
44843;DHT22;31884;52.538;13.820;2023-12-20T12:45:07;6.70;99.90
44843;DHT22;31884;52.538;13.820;2023-12-20T12:47:33;6.70;99.90
44843;DHT22;31884;52.538;13.820;2023-12-20T12:49:59;6.80;99.90
44843;DHT22;31884;52.538;13.820;2023-12-20T12:52:24;6.70;99.90
44843;DHT22;31884;52.538;13.820;2023-12-20T12:54:52;6.70;99.90
44843;DHT22;31884;52.538;13.820;2023-12-20T12:57:18;6.70;99.90
44843;DHT22;31884;52.538;13.820;2023-12-20T12:59:44;6.70;99.90
44843;DHT22;31884;52.538;13.820;2023-12-20T13:02:14;6.60;99.90
44843;DHT22;31884;52.538;13.820;2023-12-20T13:04:41;6.50;99.90
44843;DHT22;31884;52.538;13.820;2023-12-20T13:07:07;6.50;99.90
44843;DHT22;31884;52.538;13.820;2023-12-20T13:09:33;6.40;99.90
44843;DHT22;31884;52.538;13.820;2023-12-20T13:11:59;6.40;99.90
44843;DHT22;31884;52.538;13.820;2023-12-20T13:14:25;6.40;99.90
44843;DHT22;31884;52.538;13.820;2023-12-20T13:16:50;6.40;99.90
44843;DHT22;31884;52.538;13.820;2023-12-20T13:19:16;6.40;99.90
44843;DHT22;31884;52.538;13.820;2023-12-20T13:21:41;6.30;99.90
44843;DHT22;31884;52.538;13.820;2023-12-20T13:24:07;6.30;99.90
44843;DHT22;31884;52.538;13.820;2023-12-20T13:26:32;6.40;99.90
44843;DHT22;31884;52.538;13.820;2023-12-20T13:28:58;6.30;99.90
44843;DHT22;31884;52.538;13.820;2023-12-20T13:31:24;6.40;99.90
44843;DHT22;31884;52.538;13.820;2023-12-20T13:33:49;6.30;99.90
44843;DHT22;31884;52.538;13.820;2023-12-20T13:36:15;6.30;99.90
44843;DHT22;31884;52.538;13.820;2023-12-20T13:38:40;6.30;99.90
44843;DHT22;31884;52.538;13.820;2023-12-20T13:41:06;6.30;99.90
44843;DHT22;31884;52.538;13.820;2023-12-20T13:43:32;6.20;99.90
44843;DHT22;31884;52.538;13.820;2023-12-20T13:45:58;6.20;99.90
44843;DHT22;31884;52.538;13.820;2023-12-20T13:48:24;6.20;99.90
44843;DHT22;31884;52.538;13.820;2023-12-20T13:50:49;6.10;99.90
44843;DHT22;31884;52.538;13.820;2023-12-20T13:53:15;6.10;99.90
44843;DHT22;31884;52.538;13.820;2023-12-20T13:55:41;6.00;99.90
44843;DHT22;31884;52.538;13.820;2023-12-20T13:58:06;6.00;99.90
44843;DHT22;31884;52.538;13.820;2023-12-20T14:00:32;6.00;99.90
44843;DHT22;31884;52.538;13.820;2023-12-20T14:02:57;6.00;99.90
44843;DHT22;31884;52.538;13.820;2023-12-20T14:05:24;6.00;99.90
44843;DHT22;31884;52.538;13.820;2023-12-20T14:07:49;5.90;99.90
44843;DHT22;31884;52.538;13.820;2023-12-20T14:10:15;5.90;99.90
44843;DHT22;31884;52.538;13.820;2023-12-20T14:12:41;5.70;99.90
44843;DHT22;31884;52.538;13.820;2023-12-20T14:15:07;5.60;99.90
44843;DHT22;31884;52.538;13.820;2023-12-20T14:17:40;5.50;99.90
44843;DHT22;31884;52.538;13.820;2023-12-20T14:20:08;5.40;99.90
44843;DHT22;31884;52.538;13.820;2023-12-20T14:22:35;5.30;99.90
44843;DHT22;31884;52.538;13.820;2023-12-20T14:25:00;5.20;99.90
44843;DHT22;31884;52.538;13.820;2023-12-20T14:27:26;5.10;99.90
44843;DHT22;31884;52.538;13.820;2023-12-20T14:29:53;5.10;99.90
44843;DHT22;31884;52.538;13.820;2023-12-20T14:32:19;5.00;99.90
44843;DHT22;31884;52.538;13.820;2023-12-20T14:34:46;5.00;99.90
44843;DHT22;31884;52.538;13.820;2023-12-20T14:37:11;5.00;99.90
44843;DHT22;31884;52.538;13.820;2023-12-20T14:39:37;5.00;99.90
44843;DHT22;31884;52.538;13.820;2023-12-20T14:42:07;4.90;99.90
44843;DHT22;31884;52.538;13.820;2023-12-20T14:44:36;4.90;99.90
44843;DHT22;31884;52.538;13.820;2023-12-20T14:47:02;4.80;99.90
44843;DHT22;31884;52.538;13.820;2023-12-20T14:49:27;4.90;99.90
44843;DHT22;31884;52.538;13.820;2023-12-20T14:51:53;4.90;99.90
44843;DHT22;31884;52.538;13.820;2023-12-20T14:54:19;4.90;99.90
44843;DHT22;31884;52.538;13.820;2023-12-20T14:56:46;5.00;99.90
44843;DHT22;31884;52.538;13.820;2023-12-20T14:59:12;5.10;99.90
44843;DHT22;31884;52.538;13.820;2023-12-20T15:01:37;5.10;99.90
44843;DHT22;31884;52.538;13.820;2023-12-20T15:04:06;5.20;99.90
44843;DHT22;31884;52.538;13.820;2023-12-20T15:06:31;5.30;99.90
44843;DHT22;31884;52.538;13.820;2023-12-20T15:08:57;5.30;99.90
44843;DHT22;31884;52.538;13.820;2023-12-20T15:11:23;5.30;99.90
44843;DHT22;31884;52.538;13.820;2023-12-20T15:13:48;5.40;99.90
44843;DHT22;31884;52.538;13.820;2023-12-20T15:16:20;5.40;99.90
44843;DHT22;31884;52.538;13.820;2023-12-20T15:18:45;5.40;99.90
44843;DHT22;31884;52.538;13.820;2023-12-20T15:21:11;5.40;99.90
44843;DHT22;31884;52.538;13.820;2023-12-20T15:23:36;5.50;99.90
44843;DHT22;31884;52.538;13.820;2023-12-20T15:26:02;5.50;99.90